Time;durP1;ratioP1;P1;durP2;ratioP2;P2;SDS_P1;SDS_P2;PMS_P1;PMS_P2;Temp;Humidity;BMP_temperature;BMP_pressure;BME280_temperature;BME280_humidity;BME280_pressure;Samples;Min_cycle;Max_cycle;Signal;HPM_P1;HPM_P2
2023/12/15 06:21:43;;;;;;;;;;;;;;;8.65;61.04;98381.25;4231101;27;10308;-61
2023/12/15 06:23:46;;;;;;;;;;;;;;;8.91;60.42;98386.72;4224092;28;5715;-61
2023/12/15 06:25:49;;;;;;;;;;;;;;;9.15;59.90;98386.22;4231096;28;5762;-62
2023/12/15 06:27:52;;;;;;;;;;;;;;;9.35;59.97;98385.16;4231485;28;5664;-62
2023/12/15 06:29:55;;;;;;;;;;;;;;;9.53;59.77;98382.59;4224777;28;5684;-62
2023/12/15 06:31:58;;;;;;;;;;;;;;;9.66;59.02;98388.34;4227061;28;5742;-62
2023/12/15 06:34:00;;;;;;;;;;;;;;;9.72;58.77;98379.81;4231529;28;5838;-63
2023/12/15 06:36:04;;;;;;;;;;;;;;;9.80;58.66;98387.00;4230853;28;5692;-62
2023/12/15 06:38:08;;;;;;;;;;;;;;;9.83;58.62;98395.44;4230740;28;5767;-62
2023/12/15 06:40:12;;;;;;;;;;;;;;;9.88;58.25;98401.13;4230439;28;5671;-63
2023/12/15 06:42:15;;;;;;;;;;;;;;;9.92;57.96;98399.81;4230900;28;5675;-63
2023/12/15 06:44:18;;;;;;;;;;;;;;;10.02;57.51;98406.88;4229715;28;5685;-62
2023/12/15 06:46:21;;;;;;;;;;;;;;;10.08;57.72;98400.97;4234866;27;5833;-62
2023/12/15 06:48:24;;;;;;;;;;;;;;;10.09;57.21;98405.28;4233578;27;5679;-63
2023/12/15 06:50:27;;;;;;;;;;;;;;;10.08;57.36;98415.03;4228961;28;5667;-62
2023/12/15 06:52:29;;;;;;;;;;;;;;;10.12;57.39;98404.97;4229799;27;6335;-62
2023/12/15 06:54:33;;;;;;;;;;;;;;;10.17;57.12;98402.69;4229405;27;5660;-62
2023/12/15 06:56:38;;;;;;;;;;;;;;;10.22;57.24;98411.06;4232637;27;5696;-62
2023/12/15 06:58:41;;;;;;;;;;;;;;;10.24;56.91;98417.03;4255068;27;5777;-62
2023/12/15 07:00:43;;;;;;;;;;;;;;;10.23;56.40;98422.47;4222666;28;5717;-62
2023/12/15 07:02:46;;;;;;;;;;;;;;;10.24;56.61;98430.22;4232554;27;5807;-65
2023/12/15 07:04:49;;;;;;;;;;;;;;;10.28;56.64;98434.22;4231431;27;5608;-65
2023/12/15 07:06:53;;;;;;;;;;;;;;;10.32;56.14;98438.25;4229178;27;5775;-65
2023/12/15 07:08:55;;;;;;;;;;;;;;;10.35;56.36;98450.31;4227744;28;5671;-65
2023/12/15 07:11:00;;;;;;;;;;;;;;;10.32;55.92;98456.75;4225070;28;5608;-65
2023/12/15 07:13:03;;;;;;;;;;;;;;;10.36;56.09;98462.56;4226972;27;5695;-66
2023/12/15 07:15:07;;;;;;;;;;;;;;;10.39;56.00;98465.72;4227807;27;5790;-66
2023/12/15 07:17:09;;;;;;;;;;;;;;;10.43;55.56;98472.38;4228915;28;5746;-66
2023/12/15 07:19:13;;;;;;;;;;;;;;;10.46;55.73;98473.91;4227572;28;5663;-65
2023/12/15 07:21:16;;;;;;;;;;;;;;;10.49;55.86;98482.34;4223012;28;5834;-65
2023/12/15 07:23:19;;;;;;;;;;;;;;;10.52;55.74;98483.03;4215823;28;5675;-65
2023/12/15 07:25:24;;;;;;;;;;;;;;;10.52;55.41;98477.72;4217789;28;5679;-65
2023/12/15 07:27:28;;;;;;;;;;;;;;;10.55;55.53;98478.28;4216987;28;5695;-65
2023/12/15 07:29:31;;;;;;;;;;;;;;;10.58;55.30;98483.25;4218992;28;5096;-65
2023/12/15 07:31:34;;;;;;;;;;;;;;;10.57;54.97;98492.19;4218505;28;5663;-65
2023/12/15 07:33:37;;;;;;;;;;;;;;;10.59;54.96;98492.03;4218249;28;6460;-65
2023/12/15 07:35:40;;;;;;;;;;;;;;;10.61;54.99;98495.34;4217478;28;5671;-65
2023/12/15 07:37:43;;;;;;;;;;;;;;;10.62;54.90;98499.63;4203552;28;5921;-65
2023/12/15 07:39:46;;;;;;;;;;;;;;;10.64;54.76;98513.53;4220116;28;5660;-66
2023/12/15 07:41:50;;;;;;;;;;;;;;;10.65;54.92;98512.59;4217618;28;5714;-66
2023/12/15 07:43:54;;;;;;;;;;;;;;;10.67;54.78;98515.91;4219467;28;5686;-66
2023/12/15 07:45:57;;;;;;;;;;;;;;;10.68;54.88;98522.84;4218158;28;5765;-66
2023/12/15 07:48:01;;;;;;;;;;;;;;;10.67;54.34;98519.38;4218886;28;5889;-66
2023/12/15 07:50:06;;;;;;;;;;;;;;;10.68;54.54;98528.16;4218324;28;5679;-67
2023/12/15 07:52:08;;;;;;;;;;;;;;;10.66;54.27;98527.47;4214968;28;5815;-66
2023/12/15 07:54:11;;;;;;;;;;;;;;;10.63;54.40;98525.94;4219800;28;5667;-66
2023/12/15 07:56:21;;;;;;;;;;;;;;;10.64;54.36;98524.94;4213076;28;5705;-66
2023/12/15 07:58:24;;;;;;;;;;;;;;;10.64;54.44;98532.06;4215790;28;6487;-66
2023/12/15 08:00:29;;;;;;;;;;;;;;;10.64;54.07;98534.69;4213410;28;5101;-66
2023/12/15 08:02:31;;;;;;;;;;;;;;;10.64;54.27;98526.75;4216940;28;5809;-66
2023/12/15 08:04:34;;;;;;;;;;;;;;;10.67;54.03;98529.13;4217941;28;5679;-66
2023/12/15 08:06:37;;;;;;;;;;;;;;;10.70;54.54;98528.81;4216335;28;5794;-66
2023/12/15 08:08:41;;;;;;;;;;;;;;;10.71;54.04;98536.59;4220102;28;5747;-67
2023/12/15 08:10:44;;;;;;;;;;;;;;;10.69;53.82;98535.09;4220031;28;5727;-66
2023/12/15 08:12:47;;;;;;;;;;;;;;;10.63;54.08;98525.94;4218378;28;5694;-66
2023/12/15 08:14:49;;;;;;;;;;;;;;;10.65;54.19;98529.28;4218699;27;5731;-66
2023/12/15 08:16:54;;;;;;;;;;;;;;;10.69;54.14;98535.94;4218861;28;5664;-66
2023/12/15 08:18:57;;;;;;;;;;;;;;;10.68;53.67;98533.44;4218519;28;5672;-65
2023/12/15 08:21:01;;;;;;;;;;;;;;;10.71;53.95;98535.75;4218378;28;5763;-67
2023/12/15 08:23:03;;;;;;;;;;;;;;;10.71;53.92;98535.75;4218407;28;6357;-68
2023/12/15 08:25:07;;;;;;;;;;;;;;;10.71;53.68;98533.94;4218764;28;6340;-67
2023/12/15 08:27:10;;;;;;;;;;;;;;;10.73;53.95;98539.09;4218301;28;5784;-67
2023/12/15 08:29:13;;;;;;;;;;;;;;;10.71;53.48;98541.06;4218343;28;6542;-67
2023/12/15 08:31:16;;;;;;;;;;;;;;;10.73;53.60;98541.72;4218520;28;5097;-66
2023/12/15 08:33:20;;;;;;;;;;;;;;;10.76;53.65;98544.09;4217648;28;5682;-66
2023/12/15 08:35:23;;;;;;;;;;;;;;;10.79;53.41;98549.06;4218837;28;5700;-65
2023/12/15 08:37:27;;;;;;;;;;;;;;;10.75;53.42;98548.53;4218403;28;5666;-66
2023/12/15 08:39:30;;;;;;;;;;;;;;;10.74;52.86;98546.03;4218199;27;5113;-66
2023/12/15 08:41:33;;;;;;;;;;;;;;;10.70;52.44;98548.16;4217912;28;7797;-66
2023/12/15 08:43:36;;;;;;;;;;;;;;;10.68;52.80;98551.94;4218059;28;5754;-66
2023/12/15 08:45:38;;;;;;;;;;;;;;;10.70;52.24;98549.97;4218043;28;5684;-66
2023/12/15 08:47:41;;;;;;;;;;;;;;;10.67;52.27;98543.19;4217931;28;5656;-66
2023/12/15 08:49:46;;;;;;;;;;;;;;;10.65;51.55;98547.81;4218158;28;5663;-66
2023/12/15 08:51:49;;;;;;;;;;;;;;;10.63;52.23;98548.91;4218281;28;5667;-66
2023/12/15 08:53:53;;;;;;;;;;;;;;;10.61;52.16;98549.06;4218175;28;5687;-66
2023/12/15 08:55:55;;;;;;;;;;;;;;;10.61;51.62;98541.13;4218081;28;6420;-66
2023/12/15 08:57:58;;;;;;;;;;;;;;;10.60;51.51;98549.22;4218167;28;5668;-67
2023/12/15 09:00:00;;;;;;;;;;;;;;;10.63;52.10;98554.19;4210554;28;5673;-67
2023/12/15 09:02:04;;;;;;;;;;;;;;;10.65;52.13;98552.25;4217070;28;7715;-66
2023/12/15 09:04:07;;;;;;;;;;;;;;;10.69;51.88;98561.53;4218147;28;5663;-66
2023/12/15 09:06:12;;;;;;;;;;;;;;;10.71;52.27;98563.06;4214691;28;5770;-66
2023/12/15 09:08:30;;;;;;;;;;;;;;;10.70;52.30;98561.38;4225049;28;5766;-66
2023/12/15 09:10:35;;;;;;;;;;;;;;;10.76;52.00;98570.56;4217661;28;5663;-66
2023/12/15 09:12:38;;;;;;;;;;;;;;;10.79;52.27;98572.88;4216984;28;5659;-66
2023/12/15 09:14:40;;;;;;;;;;;;;;;10.82;52.33;98574.41;4217342;28;5845;-66
2023/12/15 09:16:43;;;;;;;;;;;;;;;10.84;52.22;98572.41;4217285;27;5662;-66
2023/12/15 09:18:46;;;;;;;;;;;;;;;10.87;52.36;98567.66;4216195;28;5808;-67
2023/12/15 09:20:49;;;;;;;;;;;;;;;10.88;51.98;98566.69;4208942;28;5664;-67
2023/12/15 09:22:55;;;;;;;;;;;;;;;10.90;52.18;98566.53;4214884;28;5784;-66
2023/12/15 09:24:58;;;;;;;;;;;;;;;10.90;52.08;98571.81;4202642;28;6469;-66
2023/12/15 09:27:01;;;;;;;;;;;;;;;10.90;52.09;98572.66;4210560;28;5882;-66
2023/12/15 09:29:04;;;;;;;;;;;;;;;10.93;51.97;98582.09;4217352;28;5667;-66
2023/12/15 09:31:07;;;;;;;;;;;;;;;10.88;51.95;98590.50;4215556;28;5671;-66
2023/12/15 09:33:10;;;;;;;;;;;;;;;10.88;52.21;98587.03;4217199;28;5782;-66
2023/12/15 09:35:12;;;;;;;;;;;;;;;10.93;52.04;98593.53;4217601;28;5750;-67
2023/12/15 09:37:15;;;;;;;;;;;;;;;10.90;51.56;98588.53;4215608;28;5663;-67
2023/12/15 09:39:22;;;;;;;;;;;;;;;10.83;51.84;98598.03;4216155;28;5846;-66
2023/12/15 09:41:24;;;;;;;;;;;;;;;10.86;52.01;98599.56;4204028;28;5660;-66
2023/12/15 09:43:27;;;;;;;;;;;;;;;10.90;51.06;98603.59;4212015;28;5675;-66
2023/12/15 09:45:30;;;;;;;;;;;;;;;10.91;51.33;98611.38;4224462;28;5774;-66
2023/12/15 09:47:37;;;;;;;;;;;;;;;10.93;51.40;98608.56;4213305;28;5806;-66
2023/12/15 09:49:41;;;;;;;;;;;;;;;10.95;51.43;98604.78;4215829;28;5664;-65
2023/12/15 09:51:49;;;;;;;;;;;;;;;10.97;51.56;98604.63;4207363;28;5821;-66
2023/12/15 09:53:53;;;;;;;;;;;;;;;10.95;51.52;98612.72;4222243;28;5755;-66
2023/12/15 09:55:58;;;;;;;;;;;;;;;10.89;51.17;98608.03;4213990;28;5797;-66
2023/12/15 09:58:00;;;;;;;;;;;;;;;10.88;50.88;98609.03;4211590;28;5818;-65
2023/12/15 10:00:05;;;;;;;;;;;;;;;10.89;49.93;98597.47;4212301;28;5660;-65
2023/12/15 10:02:08;;;;;;;;;;;;;;;10.83;50.20;98597.22;4215876;28;5667;-65
2023/12/15 10:04:11;;;;;;;;;;;;;;;10.83;50.05;98605.97;4215052;28;5672;-65
2023/12/15 10:06:14;;;;;;;;;;;;;;;10.85;50.69;98601.38;4216322;28;5667;-64
2023/12/15 10:08:22;;;;;;;;;;;;;;;10.93;50.70;98604.09;4216390;28;5863;-64
2023/12/15 10:10:26;;;;;;;;;;;;;;;10.95;51.12;98601.31;4212918;28;5711;-66
2023/12/15 10:12:30;;;;;;;;;;;;;;;11.00;50.75;98591.09;4216474;28;5686;-65
2023/12/15 10:14:36;;;;;;;;;;;;;;;11.04;50.63;98589.81;4216726;28;5792;-72
2023/12/15 10:16:40;;;;;;;;;;;;;;;11.06;50.77;98588.66;4216204;28;5834;-66
2023/12/15 10:18:43;;;;;;;;;;;;;;;11.07;50.76;98587.69;4212435;28;5785;-76
2023/12/15 10:20:49;;;;;;;;;;;;;;;11.05;50.75;98579.06;4217342;28;5707;-76
2023/12/15 10:23:01;;;;;;;;;;;;;;;11.06;50.81;98575.44;4217145;28;5802;-71
2023/12/15 10:25:16;;;;;;;;;;;;;;;11.08;50.16;98573.47;4219308;28;5811;-72
2023/12/15 10:27:19;;;;;;;;;;;;;;;11.11;50.21;98566.22;4215295;27;5664;-72
2023/12/15 10:29:24;;;;;;;;;;;;;;;11.12;50.53;98575.81;4213011;27;5231;-71
2023/12/15 10:31:28;;;;;;;;;;;;;;;11.14;50.23;98584.44;4212131;28;7384;-71
2023/12/15 10:33:30;;;;;;;;;;;;;;;11.14;49.57;98584.44;4211003;28;6463;-71
2023/12/15 10:35:37;;;;;;;;;;;;;;;11.14;49.21;98582.63;4211054;28;5612;-72
2023/12/15 10:37:41;;;;;;;;;;;;;;;11.11;49.50;98582.09;4215474;28;5696;-72
2023/12/15 10:39:46;;;;;;;;;;;;;;;10.98;49.02;98578.00;4213110;28;5750;-71
2023/12/15 10:41:51;;;;;;;;;;;;;;;10.97;49.79;98581.63;4216413;28;5667;-72
2023/12/15 10:43:53;;;;;;;;;;;;;;;10.98;49.67;98580.66;4216597;28;6496;-72
2023/12/15 10:46:00;;;;;;;;;;;;;;;10.96;49.63;98582.63;4214893;28;5805;-71
2023/12/15 10:48:08;;;;;;;;;;;;;;;10.96;49.54;98582.63;4216694;28;5675;-71
2023/12/15 10:50:11;;;;;;;;;;;;;;;10.91;48.93;98582.25;4214590;28;5652;-71
2023/12/15 10:52:15;;;;;;;;;;;;;;;10.90;49.34;98571.81;4215903;28;5679;-73
2023/12/15 10:54:18;;;;;;;;;;;;;;;10.96;49.51;98582.63;4213151;28;6081;-62
2023/12/15 10:56:21;;;;;;;;;;;;;;;11.03;49.28;98582.84;4215857;28;5695;-72
2023/12/15 10:58:24;;;;;;;;;;;;;;;11.04;48.84;98581.88;4219155;28;5663;-71
2023/12/15 11:00:27;;;;;;;;;;;;;;;11.04;49.33;98582.69;4219288;28;5743;-71
2023/12/15 11:02:33;;;;;;;;;;;;;;;11.08;49.55;98586.69;4219507;28;5879;-71
2023/12/15 11:04:37;;;;;;;;;;;;;;;11.08;49.22;98581.41;4219674;28;5675;-71
2023/12/15 11:06:40;;;;;;;;;;;;;;;11.08;49.37;98584.06;4219620;28;5680;-71
2023/12/15 11:08:43;;;;;;;;;;;;;;;11.14;49.04;98579.16;4219142;28;5822;-72
2023/12/15 11:10:47;;;;;;;;;;;;;;;11.15;49.04;98572.88;4219268;28;5671;-70
2023/12/15 11:12:50;;;;;;;;;;;;;;;11.17;49.59;98587.59;4218920;28;5758;-72
2023/12/15 11:15:02;;;;;;;;;;;;;;;11.20;49.25;98583.81;4223416;28;5890;-72
2023/12/15 11:17:07;;;;;;;;;;;;;;;11.25;49.28;98578.91;4219320;28;5750;-72
2023/12/15 11:19:11;;;;;;;;;;;;;;;11.25;49.23;98587.69;4219366;28;5691;-64
2023/12/15 11:21:13;;;;;;;;;;;;;;;11.29;49.08;98593.47;4219360;28;5634;-72
2023/12/15 11:23:16;;;;;;;;;;;;;;;11.30;49.20;98601.28;4219636;28;5741;-70
2023/12/15 11:25:20;;;;;;;;;;;;;;;11.26;49.02;98589.34;4219271;28;6748;-79
2023/12/15 11:27:24;;;;;;;;;;;;;;;11.26;49.23;98589.34;4216822;28;5723;-71
2023/12/15 11:29:35;;;;;;;;;;;;;;;11.31;49.15;98588.88;4217500;28;5846;-71
2023/12/15 11:31:40;;;;;;;;;;;;;;;11.35;49.38;98592.88;4218527;28;5870;-71
2023/12/15 11:33:43;;;;;;;;;;;;;;;11.32;48.73;98590.53;4218630;28;5797;-71
2023/12/15 11:35:51;;;;;;;;;;;;;;;11.31;49.15;98600.28;4218694;28;5992;-72
2023/12/15 11:37:56;;;;;;;;;;;;;;;11.32;49.29;98604.59;4212573;28;5765;-71
2023/12/15 11:40:01;;;;;;;;;;;;;;;11.34;49.27;98604.47;4218841;28;5667;-72
2023/12/15 11:42:05;;;;;;;;;;;;;;;11.32;48.91;98594.00;4218550;28;5655;-72
2023/12/15 11:44:08;;;;;;;;;;;;;;;11.33;48.90;98605.44;4218983;28;5816;-73
2023/12/15 11:46:11;;;;;;;;;;;;;;;11.37;49.32;98607.63;4218342;28;5770;-72
2023/12/15 11:48:14;;;;;;;;;;;;;;;11.41;49.25;98605.50;4217664;28;5822;-73
2023/12/15 11:50:19;;;;;;;;;;;;;;;11.44;49.35;98602.56;4217581;28;5707;-74
2023/12/15 11:52:24;;;;;;;;;;;;;;;11.45;49.03;98598.91;4223393;28;5654;-74
2023/12/15 11:54:27;;;;;;;;;;;;;;;11.45;49.29;98593.63;4217335;28;5663;-73
2023/12/15 11:56:30;;;;;;;;;;;;;;;11.48;49.55;98587.19;4219111;28;5813;-77
2023/12/15 11:58:32;;;;;;;;;;;;;;;11.50;49.52;98601.91;4215750;27;5742;-74
2023/12/15 12:00:37;;;;;;;;;;;;;;;11.51;49.40;98587.69;4215463;28;5789;-75
2023/12/15 12:02:40;;;;;;;;;;;;;;;11.52;49.43;98588.53;4218314;28;5679;-75
2023/12/15 12:04:44;;;;;;;;;;;;;;;11.53;49.18;98591.00;4218215;28;5687;-73
2023/12/15 12:06:46;;;;;;;;;;;;;;;11.56;49.47;98585.44;4218025;28;5666;-77
2023/12/15 12:08:50;;;;;;;;;;;;;;;11.58;49.49;98588.75;4218848;27;5770;-73
2023/12/15 12:10:57;;;;;;;;;;;;;;;11.56;49.59;98580.13;4218232;28;5659;-73
2023/12/15 12:13:00;;;;;;;;;;;;;;;11.56;49.78;98585.44;4218093;28;5100;-73
2023/12/15 12:15:05;;;;;;;;;;;;;;;11.57;50.13;98595.03;4218773;28;5683;-73
2023/12/15 12:17:10;;;;;;;;;;;;;;;11.60;50.09;98592.06;4211854;28;5663;-72
2023/12/15 12:19:13;;;;;;;;;;;;;;;11.60;49.93;98600.00;4217184;28;5754;-72
2023/12/15 12:21:16;;;;;;;;;;;;;;;11.59;50.43;98601.00;4217218;28;5101;-72
2023/12/15 12:23:23;;;;;;;;;;;;;;;11.61;50.26;98598.19;4218123;28;5781;-72
2023/12/15 12:25:42;;;;;;;;;;;;;;;11.59;50.24;98600.16;4218682;28;5700;-73
2023/12/15 12:27:45;;;;;;;;;;;;;;;11.58;50.50;98599.34;4213446;28;5769;-73
2023/12/15 12:29:48;;;;;;;;;;;;;;;11.57;50.64;98597.69;4221772;28;5680;-74
2023/12/15 12:31:52;;;;;;;;;;;;;;;11.58;50.47;98599.34;4218367;28;5679;-72
2023/12/15 12:33:55;;;;;;;;;;;;;;;11.60;50.48;98600.00;4218247;28;5683;-72
2023/12/15 12:35:59;;;;;;;;;;;;;;;11.60;50.75;98599.19;4218141;28;5679;-71
2023/12/15 12:38:02;;;;;;;;;;;;;;;11.58;50.91;98604.63;4218259;28;5746;-72
2023/12/15 12:40:05;;;;;;;;;;;;;;;11.60;50.66;98604.47;4217651;28;5108;-72
2023/12/15 12:42:10;;;;;;;;;;;;;;;11.59;50.79;98598.34;4217572;28;5667;-73
2023/12/15 12:44:15;;;;;;;;;;;;;;;11.59;50.67;98602.81;4218215;28;5680;-73
2023/12/15 12:46:18;;;;;;;;;;;;;;;11.59;51.07;98594.88;4214845;28;5746;-73
2023/12/15 12:48:20;;;;;;;;;;;;;;;11.61;50.94;98604.31;4217762;28;5671;-73
2023/12/15 12:50:23;;;;;;;;;;;;;;;11.62;50.68;98600.69;4217839;28;5763;-72
2023/12/15 12:52:26;;;;;;;;;;;;;;;11.61;50.66;98611.44;4217916;28;5667;-73
2023/12/15 12:54:29;;;;;;;;;;;;;;;11.60;51.04;98612.44;4217874;28;5853;-72
2023/12/15 12:56:32;;;;;;;;;;;;;;;11.62;50.80;98607.78;4217110;28;5978;-73
2023/12/15 12:58:39;;;;;;;;;;;;;;;11.64;51.12;98606.66;4217749;28;5915;-72
2023/12/15 13:00:41;;;;;;;;;;;;;;;11.66;51.15;98612.66;4217883;28;5755;-72
2023/12/15 13:02:45;;;;;;;;;;;;;;;11.68;51.02;98609.00;4217760;28;5723;-72
2023/12/15 13:04:49;;;;;;;;;;;;;;;11.69;51.12;98606.19;4214019;28;5182;-72
2023/12/15 13:06:52;;;;;;;;;;;;;;;11.70;51.37;98610.50;4217269;27;7703;-72
2023/12/15 13:08:55;;;;;;;;;;;;;;;11.72;51.11;98605.06;4217441;28;5667;-73
2023/12/15 13:10:58;;;;;;;;;;;;;;;11.70;51.32;98615.81;4216993;28;5687;-72
2023/12/15 13:13:02;;;;;;;;;;;;;;;11.70;51.50;98612.31;4216890;28;5671;-73
2023/12/15 13:15:07;;;;;;;;;;;;;;;11.70;51.56;98623.75;4217315;27;5738;-74
2023/12/15 13:17:10;;;;;;;;;;;;;;;11.71;51.58;98624.59;4217115;28;5775;-73
2023/12/15 13:19:13;;;;;;;;;;;;;;;11.70;51.34;98620.28;4216730;28;5675;-74
2023/12/15 13:21:16;;;;;;;;;;;;;;;11.71;51.42;98625.41;4217459;28;5671;-73
2023/12/15 13:23:22;;;;;;;;;;;;;;;11.70;51.52;98629.06;4217594;28;5783;-71
2023/12/15 13:25:25;;;;;;;;;;;;;;;11.70;51.61;98621.09;4217495;28;5782;-73
2023/12/15 13:27:28;;;;;;;;;;;;;;;11.71;51.99;98624.59;4217377;28;5837;-73
2023/12/15 13:29:31;;;;;;;;;;;;;;;11.70;52.05;98630.88;4217564;28;5894;-75
2023/12/15 13:31:40;;;;;;;;;;;;;;;11.69;52.04;98632.69;4216153;28;5663;-70
2023/12/15 13:33:46;;;;;;;;;;;;;;;11.69;52.07;98631.88;4217264;28;5687;-72
2023/12/15 13:35:49;;;;;;;;;;;;;;;11.68;51.69;98632.84;4217264;28;5679;-75
2023/12/15 13:37:56;;;;;;;;;;;;;;;11.69;52.06;98623.91;4209824;28;5704;-75
2023/12/15 13:39:59;;;;;;;;;;;;;;;11.65;51.65;98620.72;4215505;28;5612;-74
2023/12/15 13:42:03;;;;;;;;;;;;;;;11.63;51.68;98618.22;4217451;28;5667;-69
2023/12/15 13:44:06;;;;;;;;;;;;;;;11.67;52.09;98621.44;4217116;28;5667;-69
2023/12/15 13:46:09;;;;;;;;;;;;;;;11.70;52.16;98626.41;4217158;28;5758;-68
2023/12/15 13:48:14;;;;;;;;;;;;;;;11.72;51.85;98628.91;4212930;28;5667;-67
2023/12/15 13:50:20;;;;;;;;;;;;;;;11.72;52.27;98629.72;4217360;28;5668;-67
2023/12/15 13:52:23;;;;;;;;;;;;;;;11.70;51.80;98629.06;4217457;28;5786;-68
2023/12/15 13:54:27;;;;;;;;;;;;;;;11.70;52.08;98633.53;4212920;28;5775;-66
2023/12/15 13:56:29;;;;;;;;;;;;;;;11.69;51.88;98623.91;4211900;28;5685;-67
2023/12/15 13:58:32;;;;;;;;;;;;;;;11.69;51.98;98630.03;4215326;28;5676;-68
2023/12/15 14:00:34;;;;;;;;;;;;;;;11.69;51.65;98637.16;4216800;28;5671;-68
2023/12/15 14:02:38;;;;;;;;;;;;;;;11.60;51.12;98634.44;4217252;28;5667;-67
2023/12/15 14:04:43;;;;;;;;;;;;;;;11.58;50.83;98636.44;4205188;28;5887;-67
2023/12/15 14:06:49;;;;;;;;;;;;;;;11.54;50.40;98640.34;4213925;28;5777;-68
2023/12/15 14:08:52;;;;;;;;;;;;;;;11.51;50.49;98640.66;4210217;28;5675;-68
2023/12/15 14:10:55;;;;;;;;;;;;;;;11.55;50.49;98641.19;4216195;27;5683;-67
2023/12/15 14:12:58;;;;;;;;;;;;;;;11.59;50.41;98638.09;4210477;28;5838;-68
2023/12/15 14:15:01;;;;;;;;;;;;;;;11.61;49.83;98641.41;4215184;28;5830;-67
2023/12/15 14:17:06;;;;;;;;;;;;;;;11.58;49.45;98647.03;4216678;28;5830;-67
2023/12/15 14:19:08;;;;;;;;;;;;;;;11.56;49.35;98643.69;4215073;28;6396;-68
2023/12/15 14:21:12;;;;;;;;;;;;;;;11.54;49.73;98658.88;4216382;28;5652;-68
2023/12/15 14:23:14;;;;;;;;;;;;;;;11.53;49.66;98654.56;4217033;28;5899;-68
2023/12/15 14:25:17;;;;;;;;;;;;;;;11.48;49.51;98662.16;4220024;28;5673;-68
2023/12/15 14:27:20;;;;;;;;;;;;;;;11.48;49.36;98667.47;4215802;28;5785;-68
2023/12/15 14:29:23;;;;;;;;;;;;;;;11.48;49.49;98662.16;4214852;28;5660;-68
2023/12/15 14:31:26;;;;;;;;;;;;;;;11.53;49.49;98662.53;4214590;28;5659;-67
2023/12/15 14:33:28;;;;;;;;;;;;;;;11.51;48.93;98669.78;4215523;28;5679;-67
2023/12/15 14:35:31;;;;;;;;;;;;;;;11.52;49.10;98682.06;4218536;28;5846;-66
2023/12/15 14:37:36;;;;;;;;;;;;;;;11.54;48.94;98681.91;4229126;28;5687;-68
2023/12/15 14:39:39;;;;;;;;;;;;;;;11.52;49.27;98689.16;4221739;28;6477;-68
2023/12/15 14:41:42;;;;;;;;;;;;;;;11.53;49.22;98685.53;4219541;28;6257;-67
2023/12/15 14:43:45;;;;;;;;;;;;;;;11.53;49.01;98699.59;4222904;28;5804;-67
2023/12/15 14:45:48;;;;;;;;;;;;;;;11.49;49.20;98703.56;4220159;28;5690;-68
2023/12/15 14:47:53;;;;;;;;;;;;;;;11.44;49.01;98702.34;4220142;27;5762;-66
2023/12/15 14:50:16;;;;;;;;;;;;;;;11.44;49.20;98703.19;4220304;28;5834;-66
2023/12/15 14:52:19;;;;;;;;;;;;;;;11.43;49.22;98717.38;4219210;28;6494;-68
2023/12/15 14:54:23;;;;;;;;;;;;;;;11.42;48.98;98721.03;4217443;28;5770;-68
2023/12/15 14:56:26;;;;;;;;;;;;;;;11.44;49.07;98711.13;4216405;28;5683;-67
2023/12/15 14:58:29;;;;;;;;;;;;;;;11.36;48.87;98722.47;4219289;28;6263;-67
2023/12/15 15:00:32;;;;;;;;;;;;;;;11.34;48.66;98729.75;4220057;28;5695;-68
2023/12/15 15:02:35;;;;;;;;;;;;;;;11.34;48.83;98727.09;4219285;28;5690;-67
2023/12/15 15:04:38;;;;;;;;;;;;;;;11.34;48.77;98734.22;4219615;28;5691;-68
2023/12/15 15:06:40;;;;;;;;;;;;;;;11.33;49.09;98738.69;4217051;28;5743;-68
2023/12/15 15:08:48;;;;;;;;;;;;;;;11.36;48.98;98741.00;4211199;28;5830;-67
2023/12/15 15:10:52;;;;;;;;;;;;;;;11.31;48.78;98745.06;4219020;28;5672;-67
2023/12/15 15:12:55;;;;;;;;;;;;;;;11.30;49.24;98738.13;4218630;28;5953;-68
2023/12/15 15:14:59;;;;;;;;;;;;;;;11.35;49.09;98746.47;4218785;28;5809;-68
2023/12/15 15:17:02;;;;;;;;;;;;;;;11.38;49.07;98743.50;4219032;28;5746;-68
2023/12/15 15:19:05;;;;;;;;;;;;;;;11.37;49.12;98747.97;4217448;28;5793;-68
2023/12/15 15:21:08;;;;;;;;;;;;;;;11.36;49.06;98753.44;4216278;28;5818;-69
2023/12/15 15:23:11;;;;;;;;;;;;;;;11.36;49.18;98753.44;4218431;28;5765;-68
2023/12/15 15:25:13;;;;;;;;;;;;;;;11.37;49.30;98755.91;4218839;27;5671;-67
2023/12/15 15:27:17;;;;;;;;;;;;;;;11.38;49.37;98764.69;4218032;28;5667;-67
2023/12/15 15:29:19;;;;;;;;;;;;;;;11.42;49.32;98763.41;4218121;28;5862;-67
2023/12/15 15:31:22;;;;;;;;;;;;;;;11.40;49.04;98775.13;4218609;28;5667;-69
2023/12/15 15:33:28;;;;;;;;;;;;;;;11.38;49.05;98759.41;4218011;28;5664;-66
2023/12/15 15:35:31;;;;;;;;;;;;;;;11.41;49.01;98764.38;4217363;28;5795;-68
2023/12/15 15:37:34;;;;;;;;;;;;;;;11.38;49.05;98751.44;4217207;28;5634;-69
2023/12/15 15:39:37;;;;;;;;;;;;;;;11.42;49.12;98747.50;4217846;28;5680;-69
2023/12/15 15:41:40;;;;;;;;;;;;;;;11.40;49.10;98736.25;4217283;28;5822;-69
2023/12/15 15:43:44;;;;;;;;;;;;;;;11.42;49.09;98747.50;4218752;28;5781;-68
2023/12/15 15:45:52;;;;;;;;;;;;;;;11.43;49.36;98743.88;4211799;28;5683;-67
2023/12/15 15:47:55;;;;;;;;;;;;;;;11.44;49.08;98744.69;4219405;28;5664;-68
2023/12/15 15:49:58;;;;;;;;;;;;;;;11.44;49.42;98732.31;4219382;28;5722;-68
2023/12/15 15:52:01;;;;;;;;;;;;;;;11.43;49.16;98727.97;4216851;28;5882;-67
2023/12/15 15:54:04;;;;;;;;;;;;;;;11.42;49.11;98731.63;4224598;27;5786;-67
2023/12/15 15:56:09;;;;;;;;;;;;;;;11.44;49.33;98729.69;4217118;28;5864;-67
2023/12/15 15:58:12;;;;;;;;;;;;;;;11.43;49.30;98735.94;4217638;28;5703;-67
2023/12/15 16:00:17;;;;;;;;;;;;;;;11.40;49.39;98733.59;4219100;28;5687;-67
2023/12/15 16:02:22;;;;;;;;;;;;;;;11.39;49.44;98737.22;4218954;28;5675;-67
2023/12/15 16:04:26;;;;;;;;;;;;;;;11.38;49.03;98744.34;4218529;28;5759;-67
2023/12/15 16:06:29;;;;;;;;;;;;;;;11.40;49.05;98738.06;4218769;28;5734;-66
2023/12/15 16:08:36;;;;;;;;;;;;;;;11.36;49.44;98733.06;4218606;28;5804;-67
2023/12/15 16:10:41;;;;;;;;;;;;;;;11.37;49.22;98739.19;4213057;28;5688;-67
2023/12/15 16:12:47;;;;;;;;;;;;;;;11.32;49.08;98731.69;4215382;28;5671;-67
2023/12/15 16:14:50;;;;;;;;;;;;;;;11.34;49.27;98736.84;4215199;28;5787;-67
2023/12/15 16:16:54;;;;;;;;;;;;;;;11.33;49.05;98735.19;4218399;28;5675;-67
2023/12/15 16:18:57;;;;;;;;;;;;;;;11.32;49.18;98733.50;4215172;28;5643;-67
2023/12/15 16:21:00;;;;;;;;;;;;;;;11.31;49.00;98735.31;4220292;28;5885;-67
2023/12/15 16:23:03;;;;;;;;;;;;;;;11.30;49.04;98722.25;4223971;28;5675;-68
2023/12/15 16:25:07;;;;;;;;;;;;;;;11.31;49.29;98718.59;4218182;28;5818;-67
2023/12/15 16:27:10;;;;;;;;;;;;;;;11.30;49.01;98727.53;4218260;28;5671;-66
2023/12/15 16:29:14;;;;;;;;;;;;;;;11.29;49.05;98736.47;4218502;28;5674;-67
2023/12/15 16:31:18;;;;;;;;;;;;;;;11.29;49.01;98745.22;4217899;28;5699;-67
2023/12/15 16:33:22;;;;;;;;;;;;;;;11.26;49.12;98731.47;4218202;28;5671;-67
2023/12/15 16:35:26;;;;;;;;;;;;;;;11.25;49.07;98724.50;4218542;28;6401;-67
2023/12/15 16:37:29;;;;;;;;;;;;;;;11.26;49.24;98734.13;4218068;28;5810;-67
2023/12/15 16:39:31;;;;;;;;;;;;;;;11.27;49.24;98743.72;4216097;28;5750;-68
2023/12/15 16:41:34;;;;;;;;;;;;;;;11.26;49.24;98747.34;4217612;28;5667;-68
2023/12/15 16:43:38;;;;;;;;;;;;;;;11.22;49.11;98746.00;4218233;28;5751;-68
2023/12/15 16:45:41;;;;;;;;;;;;;;;11.20;48.91;98745.28;4218205;28;6488;-71
2023/12/15 16:47:45;;;;;;;;;;;;;;;11.18;49.06;98744.63;4210490;28;6357;-68
2023/12/15 16:49:50;;;;;;;;;;;;;;;11.14;49.21;98753.84;4218271;28;5902;-67
2023/12/15 16:51:54;;;;;;;;;;;;;;;11.12;49.09;98766.41;4216829;28;6534;-67
2023/12/15 16:53:59;;;;;;;;;;;;;;;11.09;49.36;98757.75;4217692;28;5655;-68
2023/12/15 16:56:01;;;;;;;;;;;;;;;11.08;49.15;98761.38;4216971;28;5644;-68
2023/12/15 16:58:05;;;;;;;;;;;;;;;11.07;48.98;98757.06;4217349;28;6443;-68
2023/12/15 17:00:08;;;;;;;;;;;;;;;11.02;49.20;98762.00;4217913;28;5692;-67
2023/12/15 17:02:11;;;;;;;;;;;;;;;10.95;48.89;98760.06;4217925;28;5659;-68
2023/12/15 17:04:14;;;;;;;;;;;;;;;10.91;48.92;98769.31;4217921;28;5669;-68
2023/12/15 17:06:18;;;;;;;;;;;;;;;10.84;48.73;98779.63;4217787;28;5683;-67
2023/12/15 17:08:21;;;;;;;;;;;;;;;10.79;48.98;98789.81;4217905;28;6361;-70
2023/12/15 17:10:24;;;;;;;;;;;;;;;10.76;49.06;98785.66;4213963;28;5776;-69
2023/12/15 17:12:27;;;;;;;;;;;;;;;10.74;49.10;98777.03;4217527;28;5754;-68
2023/12/15 17:14:30;;;;;;;;;;;;;;;10.74;49.18;98768.25;4218443;28;5739;-68